createdAt,value
2019-03-23T00:02:30.682Z,102243.14
2019-03-23T00:07:24.766Z,102252.84
2019-03-23T00:12:18.749Z,102258.05
2019-03-23T00:17:12.698Z,102255.37
2019-03-23T00:22:06.702Z,102255.66
2019-03-23T00:27:00.670Z,102256.80
2019-03-23T00:31:54.727Z,102267.32
2019-03-23T00:36:48.701Z,102270.08
2019-03-23T00:41:42.721Z,102276.12
2019-03-23T00:46:36.689Z,102275.73
2019-03-23T00:51:30.661Z,102283.94
2019-03-23T00:56:24.725Z,102285.03
2019-03-23T01:01:18.936Z,102289.08
2019-03-23T01:06:12.892Z,102292.02
2019-03-23T01:11:06.995Z,102295.93
2019-03-23T01:16:01.067Z,102294.66
2019-03-23T01:20:55.026Z,102293.77
2019-03-23T01:25:49.140Z,102287.52
2019-03-23T01:30:43.120Z,102288.01
2019-03-23T01:35:37.183Z,102298.17
2019-03-23T01:40:31.156Z,102304.50
2019-03-23T01:45:25.125Z,102304.17
2019-03-23T01:50:19.098Z,102298.21
2019-03-23T01:55:13.078Z,102305.27
2019-03-23T02:00:09.733Z,102305.20
2019-03-23T02:05:06.612Z,102313.89
2019-03-23T02:10:00.572Z,102325.28
2019-03-23T02:14:54.544Z,102322.64
2019-03-23T02:19:48.526Z,102318.92
2019-03-23T02:24:42.495Z,102325.19
2019-03-23T02:29:36.522Z,102334.22
2019-03-23T02:34:30.450Z,102344.64
2019-03-23T02:39:24.401Z,102355.87
2019-03-23T02:44:18.399Z,102368.64
2019-03-23T02:49:12.367Z,102374.27
2019-03-23T02:54:06.436Z,102372.67
2019-03-23T02:59:00.520Z,102377.08
2019-03-23T03:03:54.539Z,102382.22
2019-03-23T03:08:48.475Z,102397.14
2019-03-23T03:13:42.487Z,102400.71
2019-03-23T03:18:36.425Z,102399.09
2019-03-23T03:23:30.384Z,102406.78
2019-03-23T03:28:24.331Z,102409.61
2019-03-23T03:33:18.331Z,102417.23
2019-03-23T03:38:12.273Z,102420.94
2019-03-23T03:43:06.299Z,102421.73
2019-03-23T03:48:00.233Z,102418.05
2019-03-23T03:52:54.223Z,102424.38
2019-03-23T03:57:48.291Z,102433.27
2019-03-23T04:02:42.248Z,102432.48
2019-03-23T04:07:36.306Z,102431.48
2019-03-23T04:12:30.420Z,102441.98
2019-03-23T04:17:24.393Z,102437.13
2019-03-23T04:22:18.506Z,102437.22
2019-03-23T04:27:12.488Z,102440.16
2019-03-23T04:32:06.632Z,102442.05
2019-03-23T04:37:00.707Z,102452.81
2019-03-23T04:41:54.850Z,102454.78
2019-03-23T04:46:48.826Z,102460.09
2019-03-23T04:51:42.821Z,102463.09
2019-03-23T04:56:36.767Z,102463.09
2019-03-23T05:01:30.748Z,102471.27
2019-03-23T05:06:24.738Z,102481.10
2019-03-23T05:11:18.693Z,102485.78
2019-03-23T05:16:12.645Z,102479.81
2019-03-23T05:21:06.788Z,102491.44
2019-03-23T05:26:02.643Z,102503.48
2019-03-23T05:30:56.540Z,102500.30
2019-03-23T05:35:50.497Z,102510.40
2019-03-23T05:40:44.466Z,102502.45
2019-03-23T05:45:38.467Z,102513.55
2019-03-23T05:50:32.557Z,102513.55
2019-03-23T05:55:26.517Z,102504.15
2019-03-23T06:00:20.587Z,102508.80
2019-03-23T06:05:14.588Z,102519.23
2019-03-23T06:10:08.737Z,102520.38
2019-03-23T06:15:05.172Z,102523.41
2019-03-23T06:19:59.157Z,102528.86
2019-03-23T06:24:53.105Z,102529.03
2019-03-23T06:29:47.065Z,102540.81
2019-03-23T06:34:41.031Z,102540.92
2019-03-23T06:39:34.962Z,102540.09
2019-03-23T06:44:28.993Z,102534.36
2019-03-23T06:49:22.922Z,102531.34
2019-03-23T06:54:16.896Z,102536.21
2019-03-23T06:59:11.109Z,102544.03
2019-03-23T07:04:05.083Z,102547.31
2019-03-23T07:08:59.075Z,102548.31
2019-03-23T07:13:53.049Z,102552.56
2019-03-23T07:18:47.128Z,102552.16
2019-03-23T07:23:41.090Z,102550.93
2019-03-23T07:28:35.089Z,102556.02
2019-03-23T07:33:29.058Z,102559.05
2019-03-23T07:38:23.020Z,102566.34
2019-03-23T07:43:17.202Z,102565.18
2019-03-23T07:48:11.287Z,102577.44
2019-03-23T07:53:05.461Z,102586.03
2019-03-23T07:57:59.433Z,102584.72
2019-03-23T08:02:53.500Z,102582.66
2019-03-23T08:07:47.480Z,102587.22
2019-03-23T08:12:41.445Z,102593.84
2019-03-23T08:17:35.389Z,102595.79
2019-03-23T08:22:29.368Z,102600.05
2019-03-23T08:27:23.352Z,102595.49
2019-03-23T08:32:17.366Z,102592.87
2019-03-23T08:37:11.382Z,102594.00
2019-03-23T08:42:05.867Z,102598.20
2019-03-23T08:46:59.884Z,102590.75
2019-03-23T08:51:53.810Z,102595.22
2019-03-23T08:56:47.790Z,102596.04
2019-03-23T09:01:41.775Z,102584.78
2019-03-23T09:06:35.747Z,102584.38
2019-03-23T09:11:29.750Z,102585.92
2019-03-23T09:16:23.733Z,102601.82
2019-03-23T09:21:17.792Z,102600.69
2019-03-23T09:26:13.656Z,102602.20
2019-03-23T09:31:07.737Z,102602.47
2019-03-23T09:36:01.845Z,102602.60
2019-03-23T09:40:55.902Z,102603.79
2019-03-23T09:45:49.953Z,102611.59
2019-03-23T09:50:43.948Z,102605.33
2019-03-23T09:55:38.028Z,102611.95
2019-03-23T10:00:32.106Z,102613.67
2019-03-23T10:05:26.086Z,102625.84
2019-03-23T10:10:21.984Z,102616.94
2019-03-23T10:15:15.953Z,102612.67
2019-03-23T10:20:10.248Z,102622.96
2019-03-23T10:25:05.523Z,102619.58
2019-03-23T10:29:59.596Z,102621.71
2019-03-23T10:34:53.576Z,102621.84
2019-03-23T10:39:47.575Z,102627.27
2019-03-23T10:44:41.571Z,102618.50
2019-03-23T10:49:35.565Z,102620.01
2019-03-23T10:54:29.641Z,102620.31
2019-03-23T10:59:23.633Z,102628.30
2019-03-23T11:04:17.614Z,102624.48
2019-03-23T11:09:11.624Z,102621.97
2019-03-23T11:14:05.569Z,102624.22
2019-03-23T11:18:59.757Z,102617.34
2019-03-23T11:23:53.752Z,102615.31
2019-03-23T11:28:47.769Z,102616.75
2019-03-23T11:33:42.030Z,102628.46
2019-03-23T11:38:36.012Z,102634.75
2019-03-23T11:43:30.056Z,102626.06
2019-03-23T11:48:24.022Z,102620.30
2019-03-23T11:53:18.036Z,102623.69
2019-03-23T11:58:12.044Z,102611.96
2019-03-23T12:03:06.151Z,102601.98
2019-03-23T12:08:00.324Z,102613.23
2019-03-23T12:12:54.335Z,102604.70
2019-03-23T12:17:48.471Z,102617.88
2019-03-23T12:22:42.800Z,102626.23
2019-03-23T12:27:36.957Z,102616.48
2019-03-23T12:32:31.370Z,102617.58
2019-03-23T12:37:25.449Z,102615.12
2019-03-23T12:42:19.510Z,102611.45
2019-03-23T12:47:13.995Z,102617.53
2019-03-23T12:52:07.987Z,102619.45
2019-03-23T12:57:02.212Z,102619.56
2019-03-23T13:01:56.219Z,102613.83
2019-03-23T13:06:50.196Z,102621.20
2019-03-23T13:11:44.306Z,102619.98
2019-03-23T13:16:38.304Z,102619.98
2019-03-23T13:21:32.487Z,102619.55
2019-03-23T13:26:26.863Z,102622.33
2019-03-23T13:31:20.977Z,102614.98
2019-03-23T13:36:15.086Z,102606.88
2019-03-23T13:41:09.189Z,102604.86
2019-03-23T13:46:03.378Z,102604.38
2019-03-23T13:50:57.437Z,102596.43
2019-03-23T13:55:51.548Z,102597.41
2019-03-23T14:00:45.669Z,102586.95
2019-03-23T14:05:39.741Z,102586.32
2019-03-23T14:10:33.867Z,102585.48
2019-03-23T14:15:27.948Z,102580.05
2019-03-23T14:20:22.048Z,102575.42
2019-03-23T14:25:16.243Z,102581.77
2019-03-23T14:30:10.535Z,102588.01
2019-03-23T14:35:05.520Z,102584.28
2019-03-23T14:39:59.618Z,102581.83
2019-03-23T14:44:53.855Z,102583.59
2019-03-23T14:49:47.823Z,102583.27
2019-03-23T14:54:41.822Z,102578.27
2019-03-23T14:59:35.838Z,102584.08
2019-03-23T15:04:29.814Z,102583.94
2019-03-23T15:09:23.813Z,102581.00
2019-03-23T15:14:17.827Z,102592.81
2019-03-23T15:19:11.822Z,102592.58
2019-03-23T15:24:06.014Z,102595.09
2019-03-23T15:29:00.026Z,102592.58
2019-03-23T15:33:54.090Z,102592.98
2019-03-23T15:38:48.101Z,102589.73
2019-03-23T15:43:42.312Z,102584.03
2019-03-23T15:48:36.281Z,102580.20
2019-03-23T15:53:30.471Z,102579.20
2019-03-23T15:58:24.574Z,102579.23
2019-03-23T16:03:18.678Z,102573.06
2019-03-23T16:08:12.862Z,102575.67
2019-03-23T16:13:06.865Z,102576.93
2019-03-23T16:18:01.750Z,102573.23
2019-03-23T16:22:55.891Z,102573.82
2019-03-23T16:27:49.952Z,102576.03
2019-03-23T16:32:43.944Z,102573.48
2019-03-23T16:37:37.948Z,102575.02
2019-03-23T16:42:31.942Z,102577.02
2019-03-23T16:47:25.930Z,102586.48
2019-03-23T16:52:19.948Z,102587.11
2019-03-23T16:57:14.009Z,102585.70
2019-03-23T17:02:08.104Z,102576.39
2019-03-23T17:07:02.075Z,102583.69
2019-03-23T17:11:56.156Z,102583.13
2019-03-23T17:16:50.364Z,102575.89
2019-03-23T17:21:44.385Z,102571.02
2019-03-23T17:26:38.353Z,102574.00
2019-03-23T17:31:32.373Z,102575.42
2019-03-23T17:36:26.332Z,102574.85
2019-03-23T17:41:20.443Z,102585.34
2019-03-23T17:46:14.675Z,102583.16
2019-03-23T17:51:08.741Z,102580.68
2019-03-23T17:56:02.869Z,102587.73
2019-03-23T18:00:57.154Z,102592.49
2019-03-23T18:05:51.263Z,102593.62
2019-03-23T18:10:45.245Z,102598.18
2019-03-23T18:15:39.247Z,102601.71
2019-03-23T18:20:33.336Z,102599.41
2019-03-23T18:25:27.543Z,102599.51
2019-03-23T18:30:41.379Z,102605.69
2019-03-23T18:35:35.440Z,102607.09
2019-03-23T18:40:30.710Z,102605.95
2019-03-23T18:45:24.846Z,102607.11
2019-03-23T18:50:18.829Z,102605.48
2019-03-23T18:55:12.893Z,102608.78
2019-03-23T19:00:08.024Z,102610.12
2019-03-23T19:05:02.725Z,102613.75
2019-03-23T19:09:56.792Z,102616.97
2019-03-23T19:14:50.789Z,102618.38
2019-03-23T19:19:44.786Z,102624.19
2019-03-23T19:24:38.804Z,102618.19
2019-03-23T19:29:32.997Z,102620.56
2019-03-23T19:34:27.116Z,102619.42
2019-03-23T19:39:21.087Z,102623.12
2019-03-23T19:44:15.083Z,102627.67
2019-03-23T19:49:09.055Z,102622.90
2019-03-23T19:54:03.393Z,102628.70
2019-03-23T19:58:57.465Z,102628.48
2019-03-23T20:03:51.575Z,102629.08
2019-03-23T20:08:45.570Z,102631.73
2019-03-23T20:13:39.559Z,102630.41
2019-03-23T20:18:33.667Z,102632.84
2019-03-23T20:23:27.589Z,102638.84
2019-03-23T20:28:21.690Z,102629.41
2019-03-23T20:33:19.647Z,102630.37
2019-03-23T20:38:11.636Z,102624.08
2019-03-23T20:43:05.867Z,102622.16
2019-03-23T20:48:00.878Z,102619.59
2019-03-23T20:52:55.045Z,102624.05
2019-03-23T20:57:49.124Z,102621.16
2019-03-23T21:02:43.149Z,102627.14
2019-03-23T21:07:37.099Z,102620.19
2019-03-23T21:12:31.199Z,102620.08
2019-03-23T21:17:25.178Z,102609.61
2019-03-23T21:22:19.369Z,102604.84
2019-03-23T21:27:13.577Z,102590.00
2019-03-23T21:32:07.564Z,102590.38
2019-03-23T21:37:01.771Z,102585.86
2019-03-23T21:41:55.802Z,102589.13
2019-03-23T21:46:49.834Z,102583.14
2019-03-23T21:51:43.999Z,102577.59
2019-03-23T21:56:37.998Z,102580.25
2019-03-23T22:01:32.030Z,102577.34
2019-03-23T22:06:26.109Z,102572.27
2019-03-23T22:11:20.265Z,102562.80
2019-03-23T22:16:14.281Z,102562.63
2019-03-23T22:21:08.266Z,102558.53
2019-03-23T22:26:02.348Z,102562.07
2019-03-23T22:30:56.345Z,102557.67
2019-03-23T22:35:50.344Z,102552.91
2019-03-23T22:40:44.416Z,102562.80
2019-03-23T22:45:38.447Z,102551.38
2019-03-23T22:50:32.429Z,102552.11
2019-03-23T22:55:26.415Z,102537.00
2019-03-23T23:00:22.991Z,102542.39
2019-03-23T23:05:17.193Z,102535.45
2019-03-23T23:10:11.412Z,102528.19
2019-03-23T23:15:05.891Z,102524.78
2019-03-23T23:19:59.871Z,102522.86
2019-03-23T23:24:53.876Z,102518.14
2019-03-23T23:29:47.822Z,102508.78
2019-03-23T23:34:41.838Z,102513.88
2019-03-23T23:39:35.832Z,102506.80
2019-03-23T23:44:29.822Z,102509.70
2019-03-23T23:49:23.959Z,102506.74
2019-03-23T23:54:18.058Z,102502.25
2019-03-23T23:59:12.037Z,102505.98
